In Rescue
 
Open Full Screen Window  High Contrast Mode
Wind Gusting 00 knots
07
May 25, 2022 8:53 PM EDT
Weather Information
Wind Direction
  130 °
Wind Speed
  07 kt (8 mph)
Wind Gust
  00 kt (0 mph)
Altimeter
29.94 in
Visibility
10 SM
Temperature
19° C
66° F
Dewpoint
15° C
59° F
Humidity
78%
Sky Condition
Scattered @ 11,000 ft
Scattered @ 8,500 ft
Scattered @ 7,000 ft
VFR

METAR KHYX 260053Z AUTO 13007KT 10SM SCT070 SCT085 SCT110 19/15 A2994 RMK AO2 T01900150

FAA Disclaimer: The data displayed is for advisory purposes only and is not to be used for flight planning or operations.